Latest Weather Observations for Nhill Aerodrome

IDV60801

Issued at 10:02 am EST Monday 26 September 2016 (issued every 30 minutes, with the page automatically refreshed every 10 minutes)

About weather observations | Map of weather stations | Latest weather observations for VIC | Other Formats
Station Details ID: 078015 Name: NHILL AERODROME Lat: -36.31 Lon: 141.65 Height: 138.9 m
Data from the previous 72 hours. | See also: Recent months at Nhill Aerodrome
Date/Time
EST
Temp
°C
App
Temp
°C
Dew
Point
°C
Rel
Hum
%
Delta-T
°C
Wind Press
QNH
hPa
Press
MSL
hPa
Rain since
9am
mm
Dir  Spd
km/h
Gust
km/h
Spd
kts
Gust
kts
26/10:00am 14.4 11.8 7.7 64 3.3 NNW 11 20 6 11 1012.4 1012.5 0.0
26/09:30am 13.6 11.0 7.8 68 2.9 N 11 17 6 9 1012.7 1012.8 0.0
26/09:00am 12.2 9.2 7.7 74 2.2 N 13 17 7 9 1012.9 1013.0 0.0
26/08:30am 10.9 7.5 7.6 80 1.6 N 15 22 8 12 1013.0 1013.1 0.0
26/08:00am 10.1 7.5 7.7 85 1.2 N 11 15 6 8 1012.7 1012.8 0.0
26/07:30am 8.5 6.5 7.1 91 0.7 N 7 9 4 5 1012.7 1012.8 0.0
26/07:00am 6.8 4.5 5.9 94 0.4 N 7 9 4 5 1012.7 1012.8 0.0
26/06:30am 5.7 3.3 4.5 92 0.5 N 6 9 3 5 1012.6 1012.7 0.0
26/06:00am 6.4 3.6 5.0 91 0.6 N 9 13 5 7 1012.6 1012.7 0.0
26/05:30am 6.9 4.2 5.5 91 0.6 N 9 11 5 6 1012.7 1012.8 0.0
26/05:00am 7.2 4.5 5.8 91 0.6 N 9 13 5 7 1012.8 1012.9 0.0
26/04:30am 7.3 4.7 5.9 91 0.6 NNW 9 11 5 6 1012.9 1013.0 0.0
26/04:00am 7.6 5.4 6.2 91 0.6 N 7 11 4 6 1013.0 1013.1 0.0
26/03:30am 8.1 6.0 6.7 91 0.7 N 7 9 4 5 1013.2 1013.2 0.0
26/03:00am 8.0 5.5 6.6 91 0.6 N 9 11 5 6 1013.4 1013.4 0.0
26/02:30am 7.9 5.8 6.7 92 0.6 N 7 9 4 5 1013.6 1013.6 0.0
26/02:00am 7.7 5.6 6.6 93 0.5 NW 7 9 4 5 1014.0 1014.0 0.0
26/01:30am 7.7 7.0 6.8 94 0.4 CALM 0 0 0 0 1014.2 1014.2 0.0
26/01:00am 7.6 6.8 6.7 94 0.4 CALM 0 0 0 0 1014.6 1014.6 0.0
26/12:30am 7.9 7.2 6.8 93 0.5 CALM 0 0 0 0 1014.7 1014.7 0.0
26/12:00am 7.9 7.1 6.7 92 0.6 CALM 0 0 0 0 1014.7 1014.7 0.0
 
Date/Time
EST
Temp
°C
App
Temp
°C
Dew
Point
°C
Rel
Hum
%
Delta-T
°C
Wind Press
QNH
hPa
Press
MSL
hPa
Rain since
9am
mm
Dir  Spd
km/h
Gust
km/h
Spd
kts
Gust
kts
25/11:30pm 8.1 7.4 6.9 92 0.6 CALM 0 0 0 0 1014.6 1014.6 0.0
25/11:00pm 8.4 7.7 7.0 91 0.7 CALM 0 0 0 0 1014.7 1014.7 0.0
25/10:30pm 8.9 8.3 7.2 89 0.8 CALM 0 0 0 0 1014.9 1014.9 0.0
25/10:00pm 9.6 9.1 7.7 88 0.9 CALM 0 0 0 0 1014.9 1014.9 0.0
25/09:30pm 9.8 9.2 7.6 86 1.1 CALM 0 0 0 0 1015.0 1015.0 0.0
25/09:00pm 9.9 9.4 7.7 86 1.1 CALM 0 0 0 0 1014.9 1014.9 0.0
25/08:30pm 10.3 8.6 7.7 84 1.3 WSW 6 7 3 4 1014.6 1014.6 0.0
25/08:00pm 10.8 8.9 7.5 80 1.6 W 7 15 4 8 1014.5 1014.5 0.0
25/07:30pm 11.0 9.0 7.3 78 1.8 NW 7 11 4 6 1014.2 1014.2 0.0
25/07:00pm 11.2 8.8 6.9 75 2.1 W 9 13 5 7 1013.9 1013.9 0.0
25/06:30pm 11.7 8.9 7.0 73 2.3 WSW 11 15 6 8 1013.7 1013.7 0.0
25/06:00pm 12.1 8.5 6.6 69 2.6 W 15 19 8 10 1013.3 1013.3 0.0
25/05:30pm 12.6 9.3 6.2 65 3.1 W 13 20 7 11 1012.9 1013.0 0.0
25/05:00pm 12.6 9.7 6.6 67 2.9 W 11 15 6 8 1012.7 1012.8 0.0
25/04:30pm 12.4 7.3 7.5 72 2.4 WSW 24 32 13 17 1012.8 1012.9 0.0
25/04:00pm 13.0 9.0 6.8 66 3.0 WSW 17 20 9 11 1012.4 1012.5 0.0
25/03:30pm 13.8 9.5 5.4 57 4.0 W 17 24 9 13 1012.3 1012.4 0.0
25/03:00pm 14.6 10.2 6.4 58 4.0 W 19 28 10 15 1012.1 1012.2 0.0
25/02:30pm 13.8 9.3 6.9 63 3.4 WSW 20 28 11 15 1012.5 1012.6 0.0
25/02:00pm 13.8 8.7 5.9 59 3.8 W 22 32 12 17 1012.6 1012.7 0.0
25/01:30pm 14.8 10.5 5.3 53 4.5 W 17 28 9 15 1013.0 1013.1 0.0
25/01:00pm 12.9 9.0 5.3 60 3.6 WSW 15 22 8 12 1013.4 1013.4 0.0
25/12:30pm 12.8 8.6 5.9 63 3.3 SW 17 26 9 14 1013.7 1013.7 0.0
25/12:00pm 13.2 8.5 6.1 62 3.4 W 20 28 11 15 1014.1 1014.1 0.0
25/11:30am 12.8 8.0 5.5 61 3.4 WSW 20 28 11 15 1014.3 1014.3 0.0
25/11:00am 11.8 7.1 6.1 68 2.7 WSW 20 28 11 15 1014.6 1014.6 0.0
25/10:30am 12.6 8.0 6.6 67 2.9 WSW 20 30 11 16 1014.6 1014.6 0.0
25/10:00am 11.9 7.5 6.4 69 2.6 SW 19 26 10 14 1014.4 1014.4 0.0
25/09:30am 11.0 6.6 6.7 75 2.0 SW 19 26 10 14 1014.3 1014.3 0.0
25/09:00am 10.3 7.2 7.2 81 1.5 W 13 17 7 9 1014.1 1014.1 6.6
25/08:30am 9.0 5.3 6.4 84 1.2 W 15 19 8 10 1013.9 1013.9 6.6
25/08:00am 7.3 4.7 6.1 92 0.5 WNW 9 13 5 7 1013.4 1013.4 6.6
25/07:30am 5.2 2.8 4.3 94 0.4 NW 6 9 3 5 1013.2 1013.2 6.6
25/07:00am 4.3 1.6 3.6 95 0.3 WNW 7 9 4 5 1012.7 1012.8 6.6
25/06:30am 3.6 0.4 2.9 95 0.3 NW 9 11 5 6 1012.4 1012.5 6.6
25/06:00am 4.1 1.5 3.4 95 0.3 W 6 7 3 4 1011.6 1011.7 6.6
25/05:30am 4.2 1.1 3.5 95 0.3 W 9 11 5 6 1011.3 1011.3 6.6
25/05:00am 4.7 1.3 4.0 95 0.3 WSW 11 13 6 7 1011.1 1011.1 6.6
25/04:30am 3.6 0.3 2.7 94 0.4 SSW 9 11 5 6 1010.9 1010.9 6.6
25/04:00am 5.0 1.7 4.3 95 0.3 W 11 13 6 7 1010.4 1010.4 6.6
25/03:30am 5.3 2.0 4.4 94 0.4 WSW 11 13 6 7 1010.3 1010.3 6.6
25/03:00am 5.6 1.9 4.7 94 0.4 WSW 13 15 7 8 1010.1 1010.1 6.6
25/02:30am 6.3 2.8 5.4 94 0.4 WSW 13 15 7 8 1010.2 1010.2 6.6
25/02:00am 6.6 3.2 5.7 94 0.4 W 13 17 7 9 1010.2 1010.2 6.6
25/01:30am 6.8 3.8 5.9 94 0.4 W 11 13 6 7 1010.1 1010.1 6.6
25/01:00am 7.2 4.2 6.1 93 0.5 WSW 11 15 6 8 1010.0 1010.0 6.6
25/12:30am 7.8 4.6 6.9 94 0.4 WSW 13 17 7 9 1009.9 1009.9 6.6
25/12:00am 7.9 4.3 6.8 93 0.5 WSW 15 20 8 11 1009.8 1009.8 6.6
 
Date/Time
EST
Temp
°C
App
Temp
°C
Dew
Point
°C
Rel
Hum
%
Delta-T
°C
Wind Press
QNH
hPa
Press
MSL
hPa
Rain since
9am
mm
Dir  Spd
km/h
Gust
km/h
Spd
kts
Gust
kts
24/11:30pm 8.2 4.7 7.1 93 0.5 WSW 15 19 8 10 1009.7 1009.7 6.6
24/11:00pm 8.8 5.8 7.6 92 0.6 WSW 13 19 7 10 1009.6 1009.6 6.6
24/10:30pm 9.7 6.1 8.3 91 0.7 WSW 17 20 9 11 1009.3 1009.3 6.6
24/10:00pm 10.0 6.8 8.4 90 0.8 WSW 15 19 8 10 1009.0 1009.0 6.6
24/09:30pm 10.2 6.6 8.5 89 0.8 WSW 17 22 9 12 1008.9 1008.9 6.6
24/09:00pm 10.2 6.3 8.6 90 0.8 WSW 19 24 10 13 1008.5 1008.5 6.6
24/08:30pm 10.6 7.3 9.4 92 0.6 WSW 17 22 9 12 1008.0 1008.0 6.6
24/08:00pm 11.1 8.3 9.9 92 0.6 SW 15 20 8 11 1007.6 1007.6 6.4
24/07:30pm 11.3 6.4 10.0 92 0.7 SW 26 37 14 20 1007.0 1007.0 6.4
24/07:00pm 12.1 9.3 11.2 94 0.5 NW 17 20 9 11 1006.5 1006.5 5.0
24/06:30pm 12.4 9.0 11.3 93 0.6 NNW 20 30 11 16 1006.0 1006.0 3.4
24/06:00pm 12.8 9.4 11.2 90 0.9 NNW 20 28 11 15 1005.8 1005.8 1.6
24/05:30pm 13.5 11.0 12.2 92 0.7 NNW 17 22 9 12 1005.3 1005.3 1.4
24/05:00pm 13.4 12.4 12.3 93 0.6 N 9 17 5 9 1005.1 1005.1 1.4
24/04:30pm 13.2 11.0 12.1 93 0.6 NNW 15 20 8 11 1005.2 1005.2 1.4
24/04:00pm 13.5 11.0 12.2 92 0.7 NNW 17 24 9 13 1005.2 1005.2 1.0
24/03:30pm 14.1 10.7 11.4 84 1.4 NNW 20 28 11 15 1005.2 1005.2 0.0
24/03:00pm 14.0 11.2 11.3 84 1.4 NNW 17 22 9 12 1005.4 1005.4 0.0
24/02:30pm 14.2 10.4 11.0 81 1.7 NW 22 32 12 17 1005.5 1005.6 0.0
24/02:00pm 14.7 11.6 10.3 75 2.3 NNW 17 26 9 14 1005.5 1005.6 0.0
24/01:30pm 14.5 10.6 9.3 71 2.7 NNW 20 30 11 16 1006.0 1006.0 0.0
24/01:00pm 14.9 11.3 9.9 72 2.6 NNW 19 28 10 15 1006.2 1006.2 0.0
24/12:30pm 14.9 10.5 8.8 67 3.1 NNW 22 32 12 17 1006.3 1006.3 0.0
24/12:00pm 16.2 12.2 8.2 59 4.1 NNW 19 26 10 14 1006.6 1006.6 0.0
24/11:30am 15.7 13.4 9.1 65 3.4 N 11 17 6 9 1006.7 1006.7 0.0
24/11:00am 15.7 13.0 8.9 64 3.5 N 13 19 7 10 1006.6 1006.6 0.0
24/10:30am 14.3 11.4 8.3 67 3.0 NNE 13 20 7 11 1006.5 1006.5 0.0
24/10:00am 14.2 10.4 7.7 65 3.2 NNE 17 28 9 15 1006.8 1006.8 0.0
24/09:30am 13.3 10.2 7.1 66 3.0 NNE 13 26 7 14 1007.2 1007.2 0.0
24/09:00am 12.5 8.5 6.8 68 2.8 N 17 28 9 15 1007.4 1007.4 0.0
24/08:30am 11.0 7.0 6.6 74 2.1 NNE 17 24 9 13 1007.4 1007.4 0.0
24/08:00am 8.5 5.0 5.6 82 1.3 NNE 13 20 7 11 1007.4 1007.4 0.0
24/07:30am 8.4 4.8 5.2 80 1.4 NNE 13 19 7 10 1007.4 1007.4 0.0
24/07:00am 8.1 4.5 5.0 81 1.4 NNE 13 20 7 11 1007.2 1007.2 0.0
24/06:30am 7.3 3.7 4.8 84 1.1 NE 13 19 7 10 1007.4 1007.4 0.0
24/06:00am 7.5 3.9 5.0 84 1.1 NE 13 20 7 11 1007.1 1007.1 0.0
24/05:30am 7.5 3.9 5.1 85 1.1 NE 13 24 7 13 1007.2 1007.2 0.0
24/05:00am 7.1 3.9 5.3 88 0.8 NE 11 20 6 11 1007.1 1007.1 0.0
24/04:30am 7.1 2.8 5.1 87 0.9 NE 17 24 9 13 1007.0 1007.0 0.0
24/04:00am 7.4 4.3 5.5 88 0.9 NE 11 19 6 10 1007.3 1007.3 0.0
24/03:30am 7.4 3.9 5.5 88 0.9 NE 13 19 7 10 1007.7 1007.7 0.0
24/03:00am 7.6 4.6 5.9 89 0.8 NE 11 17 6 9 1008.1 1008.1 0.0
24/02:30am 7.7 5.1 6.0 89 0.8 NE 9 13 5 7 1008.6 1008.6 0.0
24/02:00am 7.2 3.7 5.5 89 0.8 NE 13 17 7 9 1008.6 1008.6 0.0
24/01:30am 7.4 4.0 5.7 89 0.8 NE 13 17 7 9 1008.7 1008.7 0.0
24/01:00am 7.4 4.7 5.7 89 0.8 NE 9 13 5 7 1009.1 1009.1 0.0
24/12:30am 7.7 4.7 6.0 89 0.8 NE 11 17 6 9 1009.1 1009.1 0.0
24/12:00am 7.7 4.6 5.7 87 0.9 NE 11 13 6 7 1009.4 1009.4 0.0
 
Date/Time
EST
Temp
°C
App
Temp
°C
Dew
Point
°C
Rel
Hum
%
Delta-T
°C
Wind Press
QNH
hPa
Press
MSL
hPa
Rain since
9am
mm
Dir  Spd
km/h
Gust
km/h
Spd
kts
Gust
kts
23/11:30pm 8.1 4.7 5.9 86 1.0 NE 13 17 7 9 1009.6 1009.6 0.0
23/11:00pm 8.2 4.4 6.0 86 1.0 NE 15 19 8 10 1009.8 1009.8 0.0
23/10:30pm 8.6 4.9 6.1 84 1.2 NE 15 20 8 11 1010.0 1010.0 0.0
23/10:00pm 9.3 5.2 6.4 82 1.4 NE 17 20 9 11 1010.0 1010.0 0.0
23/09:30pm 9.7 5.3 6.6 81 1.5 NE 19 24 10 13 1010.3 1010.3 0.0
23/09:00pm 10.0 6.0 6.7 80 1.6 ENE 17 22 9 12 1010.5 1010.5 0.0
23/08:30pm 10.5 6.6 7.0 79 1.7 ENE 17 20 9 11 1010.4 1010.4 0.0
23/08:00pm 10.6 6.8 7.5 81 1.5 ENE 17 19 9 10 1010.4 1010.4 0.0
23/07:30pm 11.1 7.7 7.6 79 1.7 ENE 15 19 8 10 1010.3 1010.3 0.0
23/07:00pm 11.6 8.7 8.1 79 1.7 ENE 13 19 7 10 1010.2 1010.2 0.0
23/06:30pm 13.2 9.5 7.9 70 2.6 ENE 17 20 9 11 1009.9 1009.9 0.0
23/06:00pm 14.5 10.8 8.0 65 3.3 ENE 17 22 9 12 1010.0 1010.0 0.0
23/05:30pm 15.2 10.9 7.7 61 3.8 ENE 20 28 11 15 1009.8 1009.8 0.0
23/05:00pm 15.6 11.2 7.4 58 4.1 ENE 20 26 11 14 1009.9 1009.9 0.0
23/04:30pm 15.8 11.5 7.1 56 4.3 NE 19 28 10 15 1010.1 1010.1 0.0
23/04:00pm 16.3 13.6 7.5 56 4.4 NE 11 19 6 10 1010.5 1010.5 0.0
23/03:30pm 15.4 11.8 6.9 57 4.2 NE 15 24 8 13 1010.8 1010.8 0.0
23/03:00pm 15.7 12.5 6.7 55 4.4 NE 13 20 7 11 1011.2 1011.2 0.0
23/02:30pm 15.3 11.6 6.3 55 4.4 NE 15 20 8 11 1011.3 1011.3 0.0
23/02:00pm 15.3 12.4 6.3 55 4.4 NNE 11 19 6 10 1012.0 1012.1 0.0
23/01:30pm 14.9 11.9 6.2 56 4.2 N 11 17 6 9 1012.7 1012.8 0.0
23/01:00pm 14.5 11.6 6.6 59 3.9 N 11 20 6 11 1013.3 1013.3 0.0
23/12:30pm 14.8 12.3 6.6 58 4.0 N 9 20 5 11 1013.7 1013.7 0.0
23/12:00pm 14.0 11.8 5.1 55 4.2 NE 6 15 3 8 1014.2 1014.2 0.0
23/11:30am 12.9 9.2 4.6 57 3.8 NE 13 24 7 13 1014.4 1014.4 0.0
23/11:00am 12.9 9.8 5.6 61 3.4 NNE 11 20 6 11 1015.2 1015.2 0.0
23/10:30am 12.2 8.3 5.4 63 3.2 NE 15 22 8 12 1015.9 1015.9 0.0

Other Formats:

Comma delimited format used in spreadsheet applications
http://www.bom.gov.au/fwo/IDV60801/IDV60801.94827.axf

JavaScript Object Notation format (JSON) in row-major order
http://www.bom.gov.au/fwo/IDV60801/IDV60801.94827.json